Huvudsida
METAR-TAF:

METAR-TAF

Flygplatser :

Dubais internationella flygplats

Dubai, Förenade Arabemiraten

latitud: 25-15-10N, longitud: 055-21-52E, höjd: 8 m

Aktuellt väderrapport

Denna rapport gjordes för 46 minuter sedan, klockan 23:00 UTC
Vind 5 kt från syd/sydväst
Temperatur 37°C
Fuktighet 35%
Tryck 994 hPa
Sikt 10 km eller mer
Inga moln under 1 500 m eller inga cumulonimbus

METAR: OMDB 222300Z 20005KT CAVOK 37/19 Q0994 NOSIG

Tid: 03:46 (23:46 UTC)

Väderprognos

Denna rapport gjordes för 51 minuter sedan, klockan 22:55 UTC
Prognos gäller från 23 kl. 00 UTC till 24 kl. 06 UTC
Vind 7 kt från sydväst
Sikt: 8000 m
Sannolikhet 30%
från 23 kl. 01 UTC till 23 kl. 06 UTC
Sikt: 4000 m
utbrett stoft
Blir
från 23 kl. 06 UTC till 23 kl. 08 UTC
Vind 12 kt från väst
Blir
från 23 kl. 16 UTC till 23 kl. 18 UTC
Vind 7 kt från syd/sydväst

TAF: OMDB 222255Z 2300/2406 22007KT 8000 NSC PROB30 2301/2306 4000 DU BECMG 2306/2308 28012KT BECMG 2316/2318 20007KT

Aktuella väderrapporter och prognoser från 4000 flygplatser (METAR- och TAF-rapporter).

De tillgängliga stationerna syns som gula och röda prickar på kartan.

För musen över prickarna för att se namnen på stationerna.

Klicka sedan för att få väderrapporter och prognoser.

För att ändra kartan: Klicka på de gröna knapparna med ett svart kors på för att zooma in; den gröna knappen med ett streck på för att zooma ut; eller på de gröna pilarna för angränsande kartor.


METAR-TAF: